Time;durP1;ratioP1;P1;durP2;ratioP2;P2;SDS_P1;SDS_P2;PMS_P1;PMS_P2;Temp;Humidity;BMP_temperature;BMP_pressure;BME280_temperature;BME280_humidity;BME280_pressure;Samples;Min_cycle;Max_cycle;Signal;HPM_P1;HPM_P2
2022/07/23 00:01:31;;;;;;;1.30;1.20;;;21.20;99.90;;;;;;4988803;28;20513;-79
2022/07/23 00:03:58;;;;;;;0.88;0.88;;;21.10;99.90;;;;;;4990361;28;20467;-79
2022/07/23 00:06:27;;;;;;;1.15;1.08;;;21.10;99.90;;;;;;4973074;28;20432;-79
2022/07/23 00:08:54;;;;;;;0.80;0.80;;;21.00;99.90;;;;;;4982148;28;20440;-79
2022/07/23 00:11:21;;;;;;;1.47;1.20;;;21.00;99.90;;;;;;4975235;28;20436;-79
2022/07/23 00:13:48;;;;;;;1.27;0.90;;;21.00;99.90;;;;;;4987031;28;20446;-80
2022/07/23 00:16:18;;;;;;;0.90;0.90;;;20.90;99.90;;;;;;4975305;28;20449;-80
2022/07/23 00:18:45;;;;;;;1.10;1.00;;;20.80;99.90;;;;;;4974393;28;20455;-79
2022/07/23 00:21:14;;;;;;;0.95;0.95;;;20.80;99.90;;;;;;4992635;28;20445;-79
2022/07/23 00:23:41;;;;;;;0.77;0.77;;;20.80;99.90;;;;;;4973340;28;20450;-80
2022/07/23 00:26:07;;;;;;;1.10;1.10;;;20.70;99.90;;;;;;4974407;28;20541;-80
2022/07/23 00:28:35;;;;;;;1.00;1.00;;;20.60;99.90;;;;;;4971023;28;20931;-79
2022/07/23 00:31:04;;;;;;;1.02;1.02;;;20.50;99.90;;;;;;4970966;28;20520;-80
2022/07/23 00:33:31;;;;;;;1.25;1.15;;;20.50;99.90;;;;;;4980326;28;20438;-79
2022/07/23 00:36:01;;;;;;;1.10;1.10;;;20.40;99.90;;;;;;4997025;28;20437;-80
2022/07/23 00:38:28;;;;;;;1.10;1.10;;;20.40;99.90;;;;;;4981340;28;20850;-79
2022/07/23 00:40:54;;;;;;;1.17;1.17;;;20.30;99.90;;;;;;4985741;28;20550;-79
2022/07/23 00:43:21;;;;;;;0.88;0.88;;;20.40;99.90;;;;;;4968638;28;20470;-79
2022/07/23 00:45:48;;;;;;;1.00;1.00;;;20.40;99.90;;;;;;4994888;28;20438;-80
2022/07/23 00:48:16;;;;;;;1.10;1.10;;;20.40;99.90;;;;;;4967487;28;20445;-79
2022/07/23 00:50:43;;;;;;;0.82;0.82;;;20.40;99.90;;;;;;4971953;28;20525;-79
2022/07/23 00:53:11;;;;;;;0.93;0.85;;;20.40;99.90;;;;;;4978363;28;20910;-79
2022/07/23 00:55:38;;;;;;;1.13;1.02;;;20.40;99.90;;;;;;4974082;28;20790;-80
2022/07/23 00:58:06;;;;;;;0.90;0.90;;;20.30;99.90;;;;;;4977924;28;20464;-79
2022/07/23 01:00:33;;;;;;;1.10;1.10;;;20.30;99.90;;;;;;4973074;28;20937;-79
2022/07/23 01:02:59;;;;;;;1.08;1.08;;;20.30;99.90;;;;;;4986948;28;20439;-79
2022/07/23 01:05:29;;;;;;;1.30;1.15;;;20.30;99.90;;;;;;4982038;28;20434;-79
2022/07/23 01:07:56;;;;;;;0.90;0.90;;;20.40;99.90;;;;;;4996354;28;20800;-80
2022/07/23 01:10:32;;;;;;;1.00;1.00;;;20.60;99.90;;;;;;4972876;28;20803;-79
2022/07/23 01:13:05;;;;;;;1.38;1.10;;;20.70;99.90;;;;;;4988396;28;20447;-80
2022/07/23 01:15:36;;;;;;;1.00;1.00;;;20.70;99.90;;;;;;4979469;28;20479;-80
2022/07/23 01:18:05;;;;;;;1.13;1.13;;;20.50;99.90;;;;;;4979281;28;20444;-80
2022/07/23 01:20:33;;;;;;;1.00;1.00;;;20.30;99.90;;;;;;4993403;28;21000;-79
2022/07/23 01:22:59;;;;;;;0.90;0.90;;;20.20;99.90;;;;;;4971945;28;20521;-80
2022/07/23 01:25:26;;;;;;;1.17;1.17;;;19.80;99.90;;;;;;4983106;28;20529;-80
2022/07/23 01:27:54;;;;;;;0.90;0.90;;;19.40;99.90;;;;;;5000519;28;20447;-80
2022/07/23 01:30:21;;;;;;;1.13;1.13;;;19.00;99.90;;;;;;5000935;28;20924;-80
2022/07/23 01:32:47;;;;;;;1.33;1.23;;;18.70;99.90;;;;;;4984787;28;20434;-79
2022/07/23 01:35:14;;;;;;;1.08;1.08;;;18.50;99.90;;;;;;4969735;28;20928;-80
2022/07/23 01:37:41;;;;;;;1.17;1.07;;;18.40;99.90;;;;;;4989543;28;20476;-80
2022/07/23 01:40:08;;;;;;;1.23;1.13;;;18.30;99.90;;;;;;4980245;28;20884;-80
2022/07/23 01:42:36;;;;;;;1.00;0.80;;;18.10;99.90;;;;;;4979054;28;20459;-80
2022/07/23 01:45:07;;;;;;;1.30;1.20;;;18.00;99.90;;;;;;4979130;28;20440;-80
2022/07/23 01:47:34;;;;;;;0.88;0.88;;;18.00;99.90;;;;;;4995992;28;20517;-80
2022/07/23 01:50:00;;;;;;;1.27;1.17;;;18.00;99.90;;;;;;4972108;28;20520;-80
2022/07/23 01:52:27;;;;;;;1.02;1.02;;;18.00;99.90;;;;;;4992402;28;20826;-80
2022/07/23 01:54:57;;;;;;;1.02;1.02;;;17.90;99.90;;;;;;4987011;28;20959;-80
2022/07/23 01:57:24;;;;;;;1.20;1.20;;;17.90;99.90;;;;;;4987767;28;20441;-80
2022/07/23 01:59:53;;;;;;;1.05;1.05;;;17.90;99.90;;;;;;4985374;28;20440;-81
2022/07/23 02:02:22;;;;;;;1.45;1.20;;;17.90;99.90;;;;;;4995962;28;20505;-80
2022/07/23 02:04:52;;;;;;;0.90;0.90;;;17.90;99.90;;;;;;4971195;28;20445;-80
2022/07/23 02:07:19;;;;;;;1.13;1.13;;;17.90;99.90;;;;;;4982841;28;20452;-81
2022/07/23 02:09:46;;;;;;;1.00;1.00;;;18.00;99.90;;;;;;4973861;28;20437;-81
2022/07/23 02:12:13;;;;;;;1.08;1.00;;;18.10;99.90;;;;;;4977801;28;20820;-81
2022/07/23 02:14:42;;;;;;;0.80;0.80;;;18.00;99.90;;;;;;4981083;28;20440;-81
2022/07/23 02:17:10;;;;;;;1.05;1.05;;;18.00;99.90;;;;;;4987345;28;20437;-81
2022/07/23 02:19:37;;;;;;;0.77;0.77;;;17.90;99.90;;;;;;4990723;28;20430;-80
2022/07/23 02:22:03;;;;;;;0.70;0.63;;;17.90;99.90;;;;;;4991030;28;20466;-80
2022/07/23 02:24:34;;;;;;;0.80;0.80;;;17.90;99.90;;;;;;4985172;28;20436;-80
2022/07/23 02:27:00;;;;;;;0.60;0.60;;;17.90;99.90;;;;;;4990066;28;20551;-80
2022/07/23 02:29:27;;;;;;;1.27;1.10;;;17.90;99.90;;;;;;4991124;28;20438;-81
2022/07/23 02:31:54;;;;;;;0.90;0.90;;;17.90;99.90;;;;;;4978892;28;20440;-81
2022/07/23 02:34:21;;;;;;;1.10;1.00;;;17.90;99.90;;;;;;4974758;28;20448;-81
2022/07/23 02:36:47;;;;;;;0.70;0.70;;;17.90;99.90;;;;;;4988024;28;20468;-80
2022/07/23 02:39:14;;;;;;;1.35;1.25;;;18.00;99.90;;;;;;4987750;28;20438;-80
2022/07/23 02:41:41;;;;;;;1.00;0.90;;;18.00;99.90;;;;;;4974033;28;20441;-80
2022/07/23 02:44:08;;;;;;;1.63;0.93;;;18.00;99.90;;;;;;4973341;28;20806;-81
2022/07/23 02:46:37;;;;;;;0.77;0.77;;;18.00;99.90;;;;;;4985740;28;20438;-81
2022/07/23 02:49:05;;;;;;;1.20;1.10;;;18.00;99.90;;;;;;4982665;28;20516;-81
2022/07/23 02:51:33;;;;;;;0.98;0.98;;;18.00;99.90;;;;;;4991938;28;20810;-81
2022/07/23 02:54:03;;;;;;;0.98;0.93;;;18.00;99.90;;;;;;4967843;28;20590;-80
2022/07/23 02:56:29;;;;;;;0.98;0.98;;;18.00;99.90;;;;;;4974515;28;20440;-81
2022/07/23 02:58:56;;;;;;;0.90;0.90;;;18.00;99.90;;;;;;4992031;28;20529;-81
2022/07/23 03:01:23;;;;;;;1.48;0.98;;;18.00;99.90;;;;;;4972431;28;20845;-80
2022/07/23 03:03:50;;;;;;;0.95;0.95;;;18.00;99.90;;;;;;4983980;28;20441;-81
2022/07/23 03:06:20;;;;;;;0.80;0.80;;;17.90;99.90;;;;;;4965160;28;20840;-81
2022/07/23 03:08:47;;;;;;;0.70;0.52;;;17.90;99.90;;;;;;4985854;28;20862;-80
2022/07/23 03:11:14;;;;;;;0.90;0.77;;;17.90;99.90;;;;;;4978637;28;20446;-80
2022/07/23 03:13:43;;;;;;;1.10;1.00;;;18.00;99.90;;;;;;4992088;28;20424;-80
2022/07/23 03:16:09;;;;;;;0.93;0.93;;;18.10;99.90;;;;;;4980070;28;20887;-79
2022/07/23 03:18:37;;;;;;;0.80;0.80;;;18.10;99.90;;;;;;4994353;28;20445;-79
2022/07/23 03:21:07;;;;;;;1.00;1.00;;;18.10;99.90;;;;;;4993279;28;20442;-80
2022/07/23 03:23:34;;;;;;;0.80;0.80;;;18.10;99.90;;;;;;4987833;28;20503;-80
2022/07/23 03:26:09;;;;;;;1.00;1.00;;;18.10;99.90;;;;;;4981206;28;20814;-80
2022/07/23 03:28:36;;;;;;;1.00;0.95;;;18.00;99.90;;;;;;4982649;28;20449;-81
2022/07/23 03:31:02;;;;;;;1.23;1.13;;;18.00;99.90;;;;;;4973022;28;20437;-82
2022/07/23 03:33:35;;;;;;;1.10;1.00;;;18.10;99.90;;;;;;4980136;28;20439;-82
2022/07/23 03:36:04;;;;;;;1.20;1.10;;;18.10;99.90;;;;;;4987711;28;20442;-82
2022/07/23 03:38:35;;;;;;;0.90;0.90;;;18.10;99.90;;;;;;4976914;28;20434;-82
2022/07/23 03:41:03;;;;;;;0.90;0.90;;;18.10;99.90;;;;;;4976053;28;20449;-82
2022/07/23 03:43:31;;;;;;;1.20;1.10;;;18.10;99.90;;;;;;4983163;28;20444;-82
2022/07/23 03:45:58;;;;;;;0.88;0.88;;;18.10;99.90;;;;;;4988164;28;20434;-81
2022/07/23 03:48:24;;;;;;;1.08;1.00;;;18.00;99.90;;;;;;4986244;28;20426;-82
2022/07/23 03:50:51;;;;;;;0.90;0.90;;;18.00;99.90;;;;;;4975168;28;20440;-82
2022/07/23 03:53:18;;;;;;;0.90;0.90;;;18.00;99.90;;;;;;4986769;28;20912;-82
2022/07/23 03:55:45;;;;;;;0.90;0.90;;;18.00;99.90;;;;;;4989280;28;20916;-83
2022/07/23 03:58:12;;;;;;;0.98;0.98;;;18.10;99.90;;;;;;4977461;28;20453;-83
2022/07/23 04:00:39;;;;;;;1.02;1.02;;;18.10;99.90;;;;;;4975067;28;21169;-83
2022/07/23 04:03:09;;;;;;;0.95;0.95;;;18.10;99.90;;;;;;4985654;28;20922;-83
2022/07/23 04:05:36;;;;;;;1.00;1.00;;;18.10;99.90;;;;;;4981900;28;20525;-83
2022/07/23 04:08:03;;;;;;;0.82;0.82;;;18.10;99.90;;;;;;4988771;28;20541;-83
2022/07/23 04:10:30;;;;;;;0.85;0.85;;;18.10;99.90;;;;;;4993201;28;20513;-83
2022/07/23 04:12:59;;;;;;;1.20;1.20;;;18.00;99.90;;;;;;4977376;28;20434;-83
2022/07/23 04:15:29;;;;;;;0.90;0.90;;;18.00;99.90;;;;;;4983926;28;20513;-82
2022/07/23 04:17:56;;;;;;;1.05;0.75;;;17.90;99.90;;;;;;4979604;28;20438;-82
2022/07/23 04:20:23;;;;;;;1.50;1.38;;;17.90;99.90;;;;;;4971340;28;21165;-82
2022/07/23 04:22:50;;;;;;;1.10;1.10;;;17.90;99.90;;;;;;4993162;28;20450;-82
2022/07/23 04:25:17;;;;;;;0.73;0.73;;;17.90;99.90;;;;;;4980684;28;20525;-82
2022/07/23 04:27:44;;;;;;;0.82;0.82;;;18.00;99.90;;;;;;4981329;28;20449;-82
2022/07/23 04:30:11;;;;;;;1.00;1.00;;;18.00;99.90;;;;;;4957457;28;20963;-82
2022/07/23 04:32:37;;;;;;;1.17;0.90;;;18.10;99.90;;;;;;4982578;28;20433;-82
2022/07/23 04:35:10;;;;;;;1.17;0.90;;;18.20;99.90;;;;;;5000523;28;20984;-82
2022/07/23 04:37:37;;;;;;;1.00;1.00;;;18.30;99.90;;;;;;4982485;28;20485;-83
2022/07/23 04:40:06;;;;;;;1.02;1.02;;;18.50;99.90;;;;;;4973564;28;20932;-82
2022/07/23 04:42:33;;;;;;;1.00;1.00;;;18.60;99.90;;;;;;4990185;28;20805;-81
2022/07/23 04:45:00;;;;;;;1.38;1.27;;;18.70;99.90;;;;;;4975665;28;20438;-81
2022/07/23 04:47:26;;;;;;;0.70;0.70;;;18.80;99.90;;;;;;5012015;28;20428;-81
2022/07/23 04:49:54;;;;;;;1.27;1.17;;;19.00;99.90;;;;;;4973959;28;20848;-81
2022/07/23 04:52:20;;;;;;;0.93;0.93;;;19.20;99.90;;;;;;4972794;28;20800;-82
2022/07/23 04:54:48;;;;;;;1.13;1.13;;;19.40;99.90;;;;;;4990166;28;20473;-81
2022/07/23 04:57:14;;;;;;;1.50;1.40;;;19.50;99.90;;;;;;4979138;28;20438;-82
2022/07/23 04:59:41;;;;;;;1.13;1.13;;;19.50;99.90;;;;;;4971074;28;20764;-81
2022/07/23 05:02:08;;;;;;;1.00;0.88;;;19.50;99.90;;;;;;4992715;28;20442;-81
2022/07/23 05:04:35;;;;;;;0.95;0.95;;;19.40;99.90;;;;;;4990719;28;20536;-81
2022/07/23 05:07:02;;;;;;;1.20;1.20;;;19.40;99.90;;;;;;4974927;28;20449;-81
2022/07/23 05:09:28;;;;;;;1.10;0.95;;;19.30;99.90;;;;;;4985832;28;20462;-81
2022/07/23 05:11:55;;;;;;;1.02;1.02;;;19.30;99.90;;;;;;4970889;28;20484;-81
2022/07/23 05:14:22;;;;;;;0.95;0.95;;;19.30;99.90;;;;;;4980831;28;20448;-82
2022/07/23 05:16:49;;;;;;;1.20;1.20;;;19.30;99.90;;;;;;4972804;28;20438;-81
2022/07/23 05:19:16;;;;;;;1.20;1.10;;;19.30;99.90;;;;;;4978365;28;20454;-81
2022/07/23 05:21:42;;;;;;;0.80;0.80;;;19.40;99.90;;;;;;4988368;28;20770;-82
2022/07/23 05:24:09;;;;;;;0.90;0.90;;;19.40;99.90;;;;;;4973232;28;20444;-82
2022/07/23 05:26:36;;;;;;;1.30;1.20;;;19.50;99.90;;;;;;4997929;28;20430;-81
2022/07/23 05:29:03;;;;;;;0.90;0.90;;;19.60;99.90;;;;;;4992435;28;20804;-81
2022/07/23 05:31:30;;;;;;;1.30;1.30;;;19.80;99.90;;;;;;4969577;28;20438;-81
2022/07/23 05:33:57;;;;;;;1.13;1.10;;;19.90;99.90;;;;;;4986554;28;20446;-82
2022/07/23 05:36:24;;;;;;;1.00;1.00;;;20.00;99.90;;;;;;4990067;28;20460;-82
2022/07/23 05:38:50;;;;;;;0.85;0.85;;;20.10;99.90;;;;;;4990800;28;20434;-81
2022/07/23 05:41:19;;;;;;;0.90;0.90;;;20.20;99.90;;;;;;4989521;28;20521;-81
2022/07/23 05:43:46;;;;;;;1.30;1.20;;;20.30;99.90;;;;;;4971018;28;20513;-81
2022/07/23 05:46:13;;;;;;;1.08;1.08;;;20.40;99.90;;;;;;4985387;28;20517;-81
2022/07/23 05:48:41;;;;;;;1.25;1.15;;;20.50;99.90;;;;;;4971239;28;20853;-82
2022/07/23 05:51:09;;;;;;;0.95;0.90;;;20.40;99.90;;;;;;4958527;28;20490;-81
2022/07/23 05:53:35;;;;;;;1.15;1.05;;;20.40;99.90;;;;;;4953813;28;20963;-81
2022/07/23 05:56:06;;;;;;;1.48;1.48;;;20.30;99.90;;;;;;4970160;28;20814;-81
2022/07/23 05:58:32;;;;;;;1.20;1.20;;;20.50;99.90;;;;;;4986337;28;20880;-81
2022/07/23 06:00:59;;;;;;;1.02;1.02;;;21.20;99.90;;;;;;4965580;28;20436;-80
2022/07/23 06:03:26;;;;;;;1.10;1.00;;;22.10;99.90;;;;;;4968770;28;20453;-81
2022/07/23 06:05:53;;;;;;;1.63;1.52;;;23.20;99.90;;;;;;4993888;28;20641;-80
2022/07/23 06:08:20;;;;;;;0.82;0.82;;;24.20;99.90;;;;;;4988271;28;20466;-80
2022/07/23 06:10:46;;;;;;;1.00;1.00;;;24.90;99.90;;;;;;4990678;28;20505;-80
2022/07/23 06:13:14;;;;;;;1.42;1.33;;;25.00;99.90;;;;;;4987856;28;20445;-80
2022/07/23 06:15:40;;;;;;;1.15;1.15;;;25.20;99.90;;;;;;4990712;28;20485;-79
2022/07/23 06:18:07;;;;;;;1.10;1.10;;;25.50;99.90;;;;;;4989117;28;20430;-79
2022/07/23 06:20:34;;;;;;;1.00;1.00;;;26.00;99.90;;;;;;4985934;28;20466;-80
2022/07/23 06:23:01;;;;;;;1.10;1.10;;;25.90;99.90;;;;;;4952433;28;20436;-80
2022/07/23 06:25:28;;;;;;;1.17;1.17;;;25.60;99.90;;;;;;4976079;28;20514;-78
2022/07/23 06:27:54;;;;;;;1.00;1.00;;;25.80;99.90;;;;;;4988101;28;20469;-78
2022/07/23 06:30:21;;;;;;;1.23;1.23;;;26.10;99.90;;;;;;4979754;28;20446;-78
2022/07/23 06:32:50;;;;;;;1.05;1.05;;;26.70;99.90;;;;;;4974378;28;20441;-78
2022/07/23 06:35:17;;;;;;;1.20;1.20;;;26.40;99.90;;;;;;4989953;28;20438;-79
2022/07/23 06:37:44;;;;;;;1.13;1.13;;;26.30;99.90;;;;;;4982353;28;21440;-81
2022/07/23 06:40:14;;;;;;;0.95;0.95;;;26.20;99.90;;;;;;4974812;28;20439;-81
2022/07/23 06:42:40;;;;;;;1.00;1.00;;;26.50;99.90;;;;;;4990776;28;20440;-81
2022/07/23 06:45:08;;;;;;;2.05;1.40;;;26.80;99.90;;;;;;4984510;28;20870;-79
2022/07/23 06:47:35;;;;;;;1.35;1.35;;;26.90;99.90;;;;;;4991017;28;21004;-79
2022/07/23 06:50:02;;;;;;;1.30;1.20;;;26.90;99.90;;;;;;4971102;28;20464;-80
2022/07/23 06:52:29;;;;;;;1.00;1.00;;;27.20;99.90;;;;;;4970908;28;20438;-80
2022/07/23 06:54:56;;;;;;;1.48;1.38;;;27.40;99.90;;;;;;4974267;28;20819;-80
2022/07/23 06:57:25;;;;;;;2.10;1.00;;;27.10;99.90;;;;;;4966515;28;20445;-80
2022/07/23 06:59:52;;;;;;;0.90;0.90;;;26.70;99.90;;;;;;4984072;28;20448;-79
2022/07/23 07:02:21;;;;;;;1.10;1.10;;;26.50;99.90;;;;;;4983642;28;20472;-80
2022/07/23 07:04:49;;;;;;;1.10;1.10;;;26.80;99.90;;;;;;4971716;28;20520;-80
2022/07/23 07:07:15;;;;;;;0.90;0.90;;;27.10;99.90;;;;;;4982648;28;20438;-80
2022/07/23 07:09:42;;;;;;;1.25;1.25;;;27.40;99.90;;;;;;4964621;28;20438;-80
2022/07/23 07:12:11;;;;;;;1.13;1.13;;;27.50;99.90;;;;;;4984058;28;20509;-79
2022/07/23 07:14:38;;;;;;;0.90;0.90;;;27.50;99.90;;;;;;4986478;28;20813;-79
2022/07/23 07:17:05;;;;;;;1.27;1.17;;;27.20;99.90;;;;;;4978456;28;20986;-79
2022/07/23 07:19:32;;;;;;;1.00;1.00;;;26.40;99.90;;;;;;4985700;28;20494;-81
2022/07/23 07:21:58;;;;;;;1.00;1.00;;;26.20;99.90;;;;;;4982190;28;20445;-79
2022/07/23 07:24:25;;;;;;;0.80;0.80;;;25.70;99.90;;;;;;4983625;28;20438;-79
2022/07/23 07:26:59;;;;;;;1.10;1.10;;;25.40;99.90;;;;;;4983139;28;20443;-80
2022/07/23 07:29:28;;;;;;;0.85;0.85;;;25.80;99.90;;;;;;4984895;28;20434;-79
2022/07/23 07:31:55;;;;;;;1.00;0.90;;;26.30;99.90;;;;;;4982029;28;20446;-79
2022/07/23 07:34:22;;;;;;;1.00;1.00;;;26.90;99.90;;;;;;4976505;28;20645;-79
2022/07/23 07:36:49;;;;;;;1.13;0.90;;;27.00;99.90;;;;;;4973508;28;20449;-79
2022/07/23 07:39:16;;;;;;;1.05;0.95;;;27.50;99.90;;;;;;4979507;28;20481;-80
2022/07/23 07:41:43;;;;;;;0.90;0.90;;;27.60;99.90;;;;;;4983208;28;20445;-80
2022/07/23 07:44:10;;;;;;;1.15;1.15;;;27.50;99.90;;;;;;4962384;28;20445;-79
2022/07/23 07:46:36;;;;;;;0.82;0.82;;;28.20;99.90;;;;;;4994462;28;20936;-80
2022/07/23 07:49:03;;;;;;;1.00;1.00;;;28.80;99.90;;;;;;4961782;28;20528;-79
2022/07/23 07:51:32;;;;;;;0.95;0.95;;;29.30;99.90;;;;;;4967374;28;20430;-79
2022/07/23 07:53:59;;;;;;;1.00;1.00;;;29.10;99.90;;;;;;4987830;28;20440;-80
2022/07/23 07:56:27;;;;;;;1.00;1.00;;;28.60;99.90;;;;;;4983398;28;20444;-79
2022/07/23 07:58:54;;;;;;;1.10;1.10;;;28.40;99.90;;;;;;4986191;28;20448;-79
2022/07/23 08:01:21;;;;;;;1.10;1.10;;;28.30;99.90;;;;;;4967457;28;20442;-80
2022/07/23 08:03:51;;;;;;;0.90;0.90;;;28.40;99.90;;;;;;4965182;28;20438;-80
2022/07/23 08:06:18;;;;;;;0.82;0.82;;;27.20;99.90;;;;;;4976185;28;20462;-80
2022/07/23 08:08:47;;;;;;;1.00;1.00;;;27.40;99.90;;;;;;4976367;28;20472;-79
2022/07/23 08:11:14;;;;;;;1.10;0.90;;;27.80;99.90;;;;;;4992814;28;20426;-79
2022/07/23 08:13:44;;;;;;;1.10;1.10;;;27.60;99.90;;;;;;4992940;28;20434;-79
2022/07/23 08:16:11;;;;;;;1.03;1.03;;;28.10;99.90;;;;;;4993132;28;20877;-79
2022/07/23 08:18:38;;;;;;;1.15;1.15;;;28.50;99.90;;;;;;4990754;28;20928;-80
2022/07/23 08:21:05;;;;;;;1.00;1.00;;;29.10;99.90;;;;;;4992649;28;20445;-80
2022/07/23 08:23:32;;;;;;;0.90;0.90;;;29.70;99.90;;;;;;4995076;28;20445;-78
2022/07/23 08:25:59;;;;;;;1.13;1.13;;;30.10;99.90;;;;;;4988078;28;20438;-79
2022/07/23 08:28:28;;;;;;;0.90;0.90;;;30.30;99.90;;;;;;4978068;28;20510;-80
2022/07/23 08:30:55;;;;;;;1.10;1.10;;;30.00;99.90;;;;;;4991525;28;20454;-80
2022/07/23 08:33:25;;;;;;;1.13;1.10;;;30.00;99.90;;;;;;4990810;28;20699;-80
2022/07/23 08:36:02;;;;;;;1.17;1.17;;;29.90;99.90;;;;;;4989641;28;20452;-81
2022/07/23 08:38:30;;;;;;;1.08;1.08;;;30.30;99.90;;;;;;4975278;28;20893;-81
2022/07/23 08:40:57;;;;;;;0.80;0.80;;;30.90;99.90;;;;;;4982695;28;20438;-81
2022/07/23 08:43:30;;;;;;;1.20;1.20;;;31.10;99.90;;;;;;4972363;28;20438;-81
2022/07/23 08:45:58;;;;;;;1.00;1.00;;;31.30;99.90;;;;;;4970544;28;20438;-82
2022/07/23 08:48:36;;;;;;;1.02;1.02;;;30.90;99.90;;;;;;4971989;28;20442;-81
2022/07/23 08:51:06;;;;;;;0.95;0.95;;;30.30;99.90;;;;;;4984886;28;20434;-81
2022/07/23 08:53:35;;;;;;;1.20;1.10;;;29.40;99.90;;;;;;4971202;28;20967;-82
2022/07/23 08:56:03;;;;;;;1.08;1.08;;;28.50;99.90;;;;;;4970647;28;20438;-81
2022/07/23 08:58:31;;;;;;;1.00;1.00;;;28.90;99.90;;;;;;4988103;28;20949;-81
2022/07/23 09:00:59;;;;;;;1.00;1.00;;;28.90;99.90;;;;;;4975109;28;20496;-81
2022/07/23 09:03:34;;;;;;;1.10;1.10;;;28.90;99.90;;;;;;4982560;28;20472;-82
2022/07/23 09:06:01;;;;;;;0.88;0.88;;;29.30;99.90;;;;;;4992892;28;20446;-82
2022/07/23 09:08:36;;;;;;;1.15;1.15;;;29.70;99.90;;;;;;4988376;28;20466;-82
2022/07/23 09:11:16;;;;;;;1.20;1.10;;;28.60;99.90;;;;;;4966007;28;20808;-82
2022/07/23 09:13:48;;;;;;;1.10;1.10;;;27.80;99.90;;;;;;4970083;28;20472;-81
2022/07/23 09:16:25;;;;;;;1.05;1.00;;;28.10;99.90;;;;;;4982736;28;20836;-82
2022/07/23 09:19:06;;;;;;;1.00;1.00;;;28.20;99.90;;;;;;4973941;28;20446;-81
2022/07/23 09:21:35;;;;;;;1.05;1.05;;;28.80;99.90;;;;;;5011903;22;20442;-76
2022/07/23 09:24:06;;;;;;;1.63;0.93;;;29.60;99.90;;;;;;5027211;28;20441;-76
2022/07/23 09:26:40;;;;;;;1.10;1.10;;;30.20;99.90;;;;;;5029577;28;20971;-77
2022/07/23 09:29:17;;;;;;;1.10;1.10;;;30.80;99.90;;;;;;5031104;28;20445;-78
2022/07/23 09:31:51;;;;;;;1.05;1.00;;;30.80;99.90;;;;;;5022912;28;20427;-76
